sensor_id;sensor_type;location;lat;lon;timestamp;pressure;altitude;pressure_sealevel;temperature;humidity
72024;BME280;59889;50.700;5.440;2023-05-25T00:00:11;100873.36;;;24.65;33.77
72024;BME280;59889;50.700;5.440;2023-05-25T00:02:34;100876.61;;;24.57;33.61
72024;BME280;59889;50.700;5.440;2023-05-25T00:04:59;100877.55;;;24.50;33.68
72024;BME280;59889;50.700;5.440;2023-05-25T00:07:24;100880.46;;;24.52;33.65
72024;BME280;59889;50.700;5.440;2023-05-25T00:09:49;100884.47;;;24.54;33.63
72024;BME280;59889;50.700;5.440;2023-05-25T00:12:14;100884.54;;;24.51;33.67
72024;BME280;59889;50.700;5.440;2023-05-25T00:14:39;100887.09;;;24.45;33.73
72024;BME280;59889;50.700;5.440;2023-05-25T00:17:04;100886.67;;;24.24;33.70
72024;BME280;59889;50.700;5.440;2023-05-25T00:19:29;100889.90;;;24.05;33.65
72024;BME280;59889;50.700;5.440;2023-05-25T00:21:54;100888.08;;;24.43;33.73
72024;BME280;59889;50.700;5.440;2023-05-25T00:24:19;100888.70;;;24.57;33.58
72024;BME280;59889;50.700;5.440;2023-05-25T00:26:44;100889.16;;;24.55;33.61
72024;BME280;59889;50.700;5.440;2023-05-25T00:29:09;100889.38;;;24.58;33.58
72024;BME280;59889;50.700;5.440;2023-05-25T00:31:34;100888.45;;;24.58;33.57
72024;BME280;59889;50.700;5.440;2023-05-25T00:33:59;100888.08;;;24.61;33.53
72024;BME280;59889;50.700;5.440;2023-05-25T00:36:24;100884.59;;;24.51;33.65
72024;BME280;59889;50.700;5.440;2023-05-25T00:38:49;100886.14;;;24.53;33.65
72024;BME280;59889;50.700;5.440;2023-05-25T00:41:16;100885.58;;;24.27;33.66
72024;BME280;59889;50.700;5.440;2023-05-25T00:43:40;100881.53;;;24.33;33.87
72024;BME280;59889;50.700;5.440;2023-05-25T00:46:05;100882.19;;;24.54;33.62
72024;BME280;59889;50.700;5.440;2023-05-25T00:48:30;100882.51;;;24.44;33.73
72024;BME280;59889;50.700;5.440;2023-05-25T00:50:56;100882.73;;;24.38;33.80
72024;BME280;59889;50.700;5.440;2023-05-25T00:53:21;100885.09;;;24.50;33.65
72024;BME280;59889;50.700;5.440;2023-05-25T00:55:50;100882.91;;;24.48;33.67
72024;BME280;59889;50.700;5.440;2023-05-25T00:58:12;100884.64;;;24.55;33.60
72024;BME280;59889;50.700;5.440;2023-05-25T01:00:36;100885.84;;;24.55;33.60
72024;BME280;59889;50.700;5.440;2023-05-25T01:03:05;100886.75;;;24.41;33.73
72024;BME280;59889;50.700;5.440;2023-05-25T01:05:26;100884.44;;;24.73;33.65
72024;BME280;59889;50.700;5.440;2023-05-25T01:07:52;100881.41;;;24.51;33.64
72024;BME280;59889;50.700;5.440;2023-05-25T01:10:19;100882.85;;;24.46;33.71
72024;BME280;59889;50.700;5.440;2023-05-25T01:12:43;100885.45;;;24.44;33.73
72024;BME280;59889;50.700;5.440;2023-05-25T01:15:08;100884.59;;;24.48;33.65
72024;BME280;59889;50.700;5.440;2023-05-25T01:17:31;100883.88;;;24.47;33.65
72024;BME280;59889;50.700;5.440;2023-05-25T01:19:56;100882.35;;;24.10;34.10
72024;BME280;59889;50.700;5.440;2023-05-25T01:22:25;100880.76;;;24.51;33.63
72024;BME280;59889;50.700;5.440;2023-05-25T01:24:49;100880.56;;;24.72;33.67
72024;BME280;59889;50.700;5.440;2023-05-25T01:27:14;100881.40;;;24.48;33.67
72024;BME280;59889;50.700;5.440;2023-05-25T01:29:39;100880.71;;;24.54;33.59
72024;BME280;59889;50.700;5.440;2023-05-25T01:32:02;100880.93;;;24.44;33.70
72024;BME280;59889;50.700;5.440;2023-05-25T01:34:27;100878.17;;;24.64;33.48
72024;BME280;59889;50.700;5.440;2023-05-25T01:36:52;100880.28;;;24.76;33.60
72024;BME280;59889;50.700;5.440;2023-05-25T01:39:20;100883.97;;;24.58;33.53
72024;BME280;59889;50.700;5.440;2023-05-25T01:41:41;100883.03;;;24.48;33.71
72024;BME280;59889;50.700;5.440;2023-05-25T01:44:07;100883.65;;;24.56;33.54
72024;BME280;59889;50.700;5.440;2023-05-25T01:46:36;100883.50;;;24.78;33.58
72024;BME280;59889;50.700;5.440;2023-05-25T01:49:04;100884.33;;;24.73;33.63
72024;BME280;59889;50.700;5.440;2023-05-25T01:51:34;100888.00;;;24.36;33.78
72024;BME280;59889;50.700;5.440;2023-05-25T01:53:51;100889.10;;;24.49;33.67
72024;BME280;59889;50.700;5.440;2023-05-25T01:56:12;100891.02;;;24.49;33.62
72024;BME280;59889;50.700;5.440;2023-05-25T01:58:38;100892.28;;;24.31;33.57
72024;BME280;59889;50.700;5.440;2023-05-25T02:01:02;100892.42;;;24.82;33.54
72024;BME280;59889;50.700;5.440;2023-05-25T02:03:28;100890.63;;;24.43;33.71
72024;BME280;59889;50.700;5.440;2023-05-25T02:05:53;100889.80;;;24.79;33.60
72024;BME280;59889;50.700;5.440;2023-05-25T02:08:18;100890.63;;;24.55;33.56
72024;BME280;59889;50.700;5.440;2023-05-25T02:10:43;100887.70;;;24.44;33.70
72024;BME280;59889;50.700;5.440;2023-05-25T02:13:08;100889.16;;;24.48;33.66
72024;BME280;59889;50.700;5.440;2023-05-25T02:15:33;100891.56;;;24.56;33.56
72024;BME280;59889;50.700;5.440;2023-05-25T02:17:58;100893.45;;;24.55;33.85
72024;BME280;59889;50.700;5.440;2023-05-25T02:20:23;100891.73;;;24.42;33.73
72024;BME280;59889;50.700;5.440;2023-05-25T02:22:48;100892.04;;;24.34;33.80
72024;BME280;59889;50.700;5.440;2023-05-25T02:25:13;100892.39;;;24.39;33.75
72024;BME280;59889;50.700;5.440;2023-05-25T02:27:38;100896.95;;;24.33;33.82
72024;BME280;59889;50.700;5.440;2023-05-25T02:30:04;100898.23;;;24.42;33.70
72024;BME280;59889;50.700;5.440;2023-05-25T02:32:28;100895.94;;;24.70;33.67
72024;BME280;59889;50.700;5.440;2023-05-25T02:34:53;100894.84;;;24.39;33.76
72024;BME280;59889;50.700;5.440;2023-05-25T02:37:18;100894.93;;;24.49;33.60
72024;BME280;59889;50.700;5.440;2023-05-25T02:39:43;100898.45;;;24.62;33.75
72024;BME280;59889;50.700;5.440;2023-05-25T02:42:08;100898.91;;;24.61;33.78
72024;BME280;59889;50.700;5.440;2023-05-25T02:44:34;100903.99;;;24.46;33.67
72024;BME280;59889;50.700;5.440;2023-05-25T02:47:00;100906.25;;;24.35;33.82
72024;BME280;59889;50.700;5.440;2023-05-25T02:49:25;100905.63;;;24.40;33.73
72024;BME280;59889;50.700;5.440;2023-05-25T02:51:50;100905.06;;;24.43;33.70
72024;BME280;59889;50.700;5.440;2023-05-25T02:54:15;100903.50;;;24.43;33.68
72024;BME280;59889;50.700;5.440;2023-05-25T02:56:41;100905.06;;;24.41;33.71
72024;BME280;59889;50.700;5.440;2023-05-25T02:59:06;100904.63;;;24.49;33.61
72024;BME280;59889;50.700;5.440;2023-05-25T03:01:32;100906.69;;;24.43;33.71
72024;BME280;59889;50.700;5.440;2023-05-25T03:03:56;100908.46;;;24.44;33.67
72024;BME280;59889;50.700;5.440;2023-05-25T03:06:21;100909.21;;;24.49;33.61
72024;BME280;59889;50.700;5.440;2023-05-25T03:08:47;100912.31;;;24.39;33.71
72024;BME280;59889;50.700;5.440;2023-05-25T03:11:11;100916.10;;;24.61;33.73
72024;BME280;59889;50.700;5.440;2023-05-25T03:13:36;100918.69;;;24.37;33.77
72024;BME280;59889;50.700;5.440;2023-05-25T03:16:01;100918.86;;;24.44;33.66
72024;BME280;59889;50.700;5.440;2023-05-25T03:18:27;100920.64;;;24.42;33.71
72024;BME280;59889;50.700;5.440;2023-05-25T03:20:52;100924.90;;;24.49;33.63
72024;BME280;59889;50.700;5.440;2023-05-25T03:23:17;100927.86;;;24.49;33.86
72024;BME280;59889;50.700;5.440;2023-05-25T03:25:43;100930.42;;;24.38;33.74
72024;BME280;59889;50.700;5.440;2023-05-25T03:28:09;100933.80;;;24.17;33.98
72024;BME280;59889;50.700;5.440;2023-05-25T03:30:34;100932.05;;;24.43;33.66
72024;BME280;59889;50.700;5.440;2023-05-25T03:33:00;100932.58;;;24.28;33.82
72024;BME280;59889;50.700;5.440;2023-05-25T03:35:25;100932.42;;;24.12;33.76
72024;BME280;59889;50.700;5.440;2023-05-25T03:37:50;100937.80;;;24.37;33.73
72024;BME280;59889;50.700;5.440;2023-05-25T03:40:15;100936.82;;;24.40;33.69
72024;BME280;59889;50.700;5.440;2023-05-25T03:42:41;100940.25;;;24.37;33.73
72024;BME280;59889;50.700;5.440;2023-05-25T03:45:07;100941.21;;;24.64;33.71
72024;BME280;59889;50.700;5.440;2023-05-25T03:47:31;100945.43;;;24.45;33.90
72024;BME280;59889;50.700;5.440;2023-05-25T03:49:56;100946.81;;;24.35;33.76
72024;BME280;59889;50.700;5.440;2023-05-25T03:52:21;100948.17;;;24.34;33.74
72024;BME280;59889;50.700;5.440;2023-05-25T03:54:47;100952.21;;;24.28;33.86
72024;BME280;59889;50.700;5.440;2023-05-25T03:57:11;100954.14;;;24.41;33.70
72024;BME280;59889;50.700;5.440;2023-05-25T03:59:36;100955.60;;;24.42;33.68
72024;BME280;59889;50.700;5.440;2023-05-25T04:02:01;100955.10;;;24.62;33.75
72024;BME280;59889;50.700;5.440;2023-05-25T04:04:26;100958.16;;;24.22;33.90
72024;BME280;59889;50.700;5.440;2023-05-25T04:06:51;100961.12;;;24.11;34.47
72024;BME280;59889;50.700;5.440;2023-05-25T04:09:16;100964.50;;;23.54;34.42
72024;BME280;59889;50.700;5.440;2023-05-25T04:11:41;100964.54;;;23.66;34.04
72024;BME280;59889;50.700;5.440;2023-05-25T04:14:06;100967.08;;;23.47;33.94
72024;BME280;59889;50.700;5.440;2023-05-25T04:16:31;100968.02;;;23.45;33.75
72024;BME280;59889;50.700;5.440;2023-05-25T04:18:56;100970.11;;;23.52;33.77
72024;BME280;59889;50.700;5.440;2023-05-25T04:21:21;100969.49;;;23.82;33.51
72024;BME280;59889;50.700;5.440;2023-05-25T04:23:46;100969.93;;;23.49;33.48
72024;BME280;59889;50.700;5.440;2023-05-25T04:26:11;100972.73;;;23.73;33.00
72024;BME280;59889;50.700;5.440;2023-05-25T04:28:36;100975.35;;;23.63;33.17
72024;BME280;59889;50.700;5.440;2023-05-25T04:31:01;100980.98;;;23.46;33.34
72024;BME280;59889;50.700;5.440;2023-05-25T04:33:26;100982.85;;;23.64;32.94
72024;BME280;59889;50.700;5.440;2023-05-25T04:35:51;100982.36;;;23.61;33.22
72024;BME280;59889;50.700;5.440;2023-05-25T04:38:16;100985.06;;;23.66;33.05
72024;BME280;59889;50.700;5.440;2023-05-25T04:40:41;100980.05;;;23.35;33.13
72024;BME280;59889;50.700;5.440;2023-05-25T04:43:06;100979.15;;;23.53;32.73
72024;BME280;59889;50.700;5.440;2023-05-25T04:45:31;100981.52;;;23.48;32.74
72024;BME280;59889;50.700;5.440;2023-05-25T04:47:56;100982.60;;;23.53;32.68
72024;BME280;59889;50.700;5.440;2023-05-25T04:50:21;100980.43;;;23.63;32.44
72024;BME280;59889;50.700;5.440;2023-05-25T04:52:46;100981.36;;;23.73;32.47
72024;BME280;59889;50.700;5.440;2023-05-25T04:55:11;100984.78;;;23.46;32.48
72024;BME280;59889;50.700;5.440;2023-05-25T04:57:36;100991.31;;;23.71;32.39
72024;BME280;59889;50.700;5.440;2023-05-25T05:00:01;100994.53;;;23.82;32.21
72024;BME280;59889;50.700;5.440;2023-05-25T05:02:26;100997.14;;;23.44;32.36
72024;BME280;59889;50.700;5.440;2023-05-25T05:04:51;100999.42;;;23.56;32.19
72024;BME280;59889;50.700;5.440;2023-05-25T05:07:16;101003.87;;;23.47;32.22
72024;BME280;59889;50.700;5.440;2023-05-25T05:09:42;101004.81;;;23.74;32.10
72024;BME280;59889;50.700;5.440;2023-05-25T05:12:07;101004.78;;;23.35;32.19
72024;BME280;59889;50.700;5.440;2023-05-25T05:14:32;101006.17;;;23.21;32.04
72024;BME280;59889;50.700;5.440;2023-05-25T05:16:58;101004.46;;;23.50;32.06
72024;BME280;59889;50.700;5.440;2023-05-25T05:19:22;101005.81;;;23.70;31.92
72024;BME280;59889;50.700;5.440;2023-05-25T05:21:48;101004.53;;;23.22;32.25
72024;BME280;59889;50.700;5.440;2023-05-25T05:24:12;101005.36;;;23.83;32.10
72024;BME280;59889;50.700;5.440;2023-05-25T05:26:38;101012.23;;;23.73;32.30
72024;BME280;59889;50.700;5.440;2023-05-25T05:29:03;101018.35;;;23.95;32.08
72024;BME280;59889;50.700;5.440;2023-05-25T05:31:28;101019.13;;;23.96;32.15
72024;BME280;59889;50.700;5.440;2023-05-25T05:33:53;101020.78;;;23.89;32.24
72024;BME280;59889;50.700;5.440;2023-05-25T05:36:18;101017.76;;;23.29;32.35
72024;BME280;59889;50.700;5.440;2023-05-25T05:38:43;101019.91;;;23.41;32.47
72024;BME280;59889;50.700;5.440;2023-05-25T05:41:08;101018.87;;;23.47;32.75
72024;BME280;59889;50.700;5.440;2023-05-25T05:43:33;101023.33;;;23.51;32.39
72024;BME280;59889;50.700;5.440;2023-05-25T05:45:58;101027.03;;;23.59;32.29
72024;BME280;59889;50.700;5.440;2023-05-25T05:48:23;101027.70;;;23.33;32.57
72024;BME280;59889;50.700;5.440;2023-05-25T05:50:48;101030.66;;;23.27;32.36
72024;BME280;59889;50.700;5.440;2023-05-25T05:53:13;101035.24;;;23.36;32.22
72024;BME280;59889;50.700;5.440;2023-05-25T05:55:38;101037.91;;;23.76;32.05
72024;BME280;59889;50.700;5.440;2023-05-25T05:58:03;101040.20;;;24.00;32.02
72024;BME280;59889;50.700;5.440;2023-05-25T06:00:28;101040.61;;;23.91;32.07
72024;BME280;59889;50.700;5.440;2023-05-25T06:02:54;101038.16;;;23.96;32.06
72024;BME280;59889;50.700;5.440;2023-05-25T06:05:19;101042.45;;;23.80;32.13
72024;BME280;59889;50.700;5.440;2023-05-25T06:07:44;101046.78;;;23.95;32.06
72024;BME280;59889;50.700;5.440;2023-05-25T06:10:09;101047.49;;;23.89;32.02
72024;BME280;59889;50.700;5.440;2023-05-25T06:12:34;101046.84;;;24.01;31.92
72024;BME280;59889;50.700;5.440;2023-05-25T06:14:59;101050.30;;;23.71;31.90
72024;BME280;59889;50.700;5.440;2023-05-25T06:17:24;101052.34;;;23.95;31.90
72024;BME280;59889;50.700;5.440;2023-05-25T06:19:49;101053.43;;;23.48;32.13
72024;BME280;59889;50.700;5.440;2023-05-25T06:22:14;101050.46;;;23.65;32.00
72024;BME280;59889;50.700;5.440;2023-05-25T06:24:39;101050.82;;;23.56;32.04
72024;BME280;59889;50.700;5.440;2023-05-25T06:27:04;101049.44;;;23.98;31.82
72024;BME280;59889;50.700;5.440;2023-05-25T06:29:29;101051.30;;;23.82;31.73
72024;BME280;59889;50.700;5.440;2023-05-25T06:31:54;101046.37;;;23.52;32.05
72024;BME280;59889;50.700;5.440;2023-05-25T06:34:19;101048.68;;;23.99;31.81
72024;BME280;59889;50.700;5.440;2023-05-25T06:36:44;101048.52;;;23.37;31.91
72024;BME280;59889;50.700;5.440;2023-05-25T06:39:09;101053.17;;;23.36;31.97
72024;BME280;59889;50.700;5.440;2023-05-25T06:41:36;101059.83;;;23.62;31.90
72024;BME280;59889;50.700;5.440;2023-05-25T06:43:59;101061.99;;;23.71;31.80
72024;BME280;59889;50.700;5.440;2023-05-25T06:46:24;101062.36;;;23.50;31.75
72024;BME280;59889;50.700;5.440;2023-05-25T06:48:49;101064.23;;;23.75;31.83
72024;BME280;59889;50.700;5.440;2023-05-25T06:51:15;101062.38;;;23.51;31.85
72024;BME280;59889;50.700;5.440;2023-05-25T06:53:39;101064.46;;;23.55;31.88
72024;BME280;59889;50.700;5.440;2023-05-25T06:56:05;101069.37;;;23.81;31.91
72024;BME280;59889;50.700;5.440;2023-05-25T06:58:30;101072.26;;;23.79;31.98
72024;BME280;59889;50.700;5.440;2023-05-25T07:00:55;101072.98;;;23.64;32.13
72024;BME280;59889;50.700;5.440;2023-05-25T07:03:20;101068.77;;;23.57;32.00
72024;BME280;59889;50.700;5.440;2023-05-25T07:05:45;101077.03;;;23.78;32.08
72024;BME280;59889;50.700;5.440;2023-05-25T07:08:10;101077.37;;;23.95;31.95
72024;BME280;59889;50.700;5.440;2023-05-25T07:10:35;101075.40;;;23.88;32.02
72024;BME280;59889;50.700;5.440;2023-05-25T07:13:00;101077.08;;;23.90;32.03
72024;BME280;59889;50.700;5.440;2023-05-25T07:15:25;101078.50;;;23.98;32.01
72024;BME280;59889;50.700;5.440;2023-05-25T07:17:50;101076.06;;;23.97;32.00
72024;BME280;59889;50.700;5.440;2023-05-25T07:20:15;101078.79;;;23.72;31.92
72024;BME280;59889;50.700;5.440;2023-05-25T07:22:40;101082.09;;;24.00;31.63
72024;BME280;59889;50.700;5.440;2023-05-25T07:25:05;101084.41;;;23.97;31.49
72024;BME280;59889;50.700;5.440;2023-05-25T07:27:30;101078.72;;;24.08;31.55
72024;BME280;59889;50.700;5.440;2023-05-25T07:29:55;101083.39;;;24.11;31.57
72024;BME280;59889;50.700;5.440;2023-05-25T07:32:20;101086.36;;;24.22;31.48
72024;BME280;59889;50.700;5.440;2023-05-25T07:34:45;101084.05;;;24.44;31.38
72024;BME280;59889;50.700;5.440;2023-05-25T07:37:10;101088.44;;;23.94;31.20
72024;BME280;59889;50.700;5.440;2023-05-25T07:39:35;101089.93;;;24.18;31.21
72024;BME280;59889;50.700;5.440;2023-05-25T07:42:00;101089.89;;;24.36;31.41
72024;BME280;59889;50.700;5.440;2023-05-25T07:44:25;101094.71;;;23.94;31.35
72024;BME280;59889;50.700;5.440;2023-05-25T07:46:50;101095.37;;;24.07;31.36
72024;BME280;59889;50.700;5.440;2023-05-25T07:49:15;101095.17;;;24.14;31.31
72024;BME280;59889;50.700;5.440;2023-05-25T07:51:41;101095.96;;;23.88;31.39
72024;BME280;59889;50.700;5.440;2023-05-25T07:54:06;101096.78;;;24.15;31.18
72024;BME280;59889;50.700;5.440;2023-05-25T07:56:31;101099.18;;;24.28;30.99
72024;BME280;59889;50.700;5.440;2023-05-25T07:58:56;101100.84;;;23.98;31.01
72024;BME280;59889;50.700;5.440;2023-05-25T08:01:22;101096.77;;;24.01;31.00
72024;BME280;59889;50.700;5.440;2023-05-25T08:03:46;101097.34;;;24.08;31.04
72024;BME280;59889;50.700;5.440;2023-05-25T08:06:12;101097.50;;;23.93;31.27
72024;BME280;59889;50.700;5.440;2023-05-25T08:08:37;101103.08;;;24.02;31.19
72024;BME280;59889;50.700;5.440;2023-05-25T08:11:02;101107.25;;;24.09;31.37
72024;BME280;59889;50.700;5.440;2023-05-25T08:13:27;101106.59;;;24.05;31.24
72024;BME280;59889;50.700;5.440;2023-05-25T08:15:52;101107.91;;;24.27;31.20
72024;BME280;59889;50.700;5.440;2023-05-25T08:18:17;101100.65;;;23.84;31.48
72024;BME280;59889;50.700;5.440;2023-05-25T08:20:42;101102.85;;;24.51;31.48
72024;BME280;59889;50.700;5.440;2023-05-25T08:23:07;101106.90;;;23.79;31.73
72024;BME280;59889;50.700;5.440;2023-05-25T08:25:32;101108.03;;;24.09;31.59
72024;BME280;59889;50.700;5.440;2023-05-25T08:27:57;101105.42;;;24.12;31.53
72024;BME280;59889;50.700;5.440;2023-05-25T08:30:22;101107.44;;;23.90;31.56
72024;BME280;59889;50.700;5.440;2023-05-25T08:32:47;101111.69;;;24.52;31.39
72024;BME280;59889;50.700;5.440;2023-05-25T08:35:12;101106.30;;;23.80;31.64
72024;BME280;59889;50.700;5.440;2023-05-25T08:37:37;101114.06;;;23.87;31.91
72024;BME280;59889;50.700;5.440;2023-05-25T08:40:03;101117.40;;;24.04;31.43
72024;BME280;59889;50.700;5.440;2023-05-25T08:42:28;101113.20;;;24.02;31.40
72024;BME280;59889;50.700;5.440;2023-05-25T08:44:52;101110.99;;;24.19;31.55
72024;BME280;59889;50.700;5.440;2023-05-25T08:47:21;101108.44;;;24.21;31.35
72024;BME280;59889;50.700;5.440;2023-05-25T08:49:43;101108.07;;;24.04;31.22
72024;BME280;59889;50.700;5.440;2023-05-25T08:52:09;101110.12;;;24.37;30.83
72024;BME280;59889;50.700;5.440;2023-05-25T08:54:35;101113.40;;;23.94;31.23
72024;BME280;59889;50.700;5.440;2023-05-25T08:57:01;101112.59;;;24.40;31.16
72024;BME280;59889;50.700;5.440;2023-05-25T08:59:29;101108.77;;;24.10;31.34
72024;BME280;59889;50.700;5.440;2023-05-25T09:01:53;101104.84;;;24.19;30.98
72024;BME280;59889;50.700;5.440;2023-05-25T09:04:14;101108.02;;;23.78;31.05
72024;BME280;59889;50.700;5.440;2023-05-25T09:06:39;101108.66;;;24.35;30.81
72024;BME280;59889;50.700;5.440;2023-05-25T09:09:04;101109.62;;;24.10;30.79
72024;BME280;59889;50.700;5.440;2023-05-25T09:11:29;101110.46;;;23.99;30.98
72024;BME280;59889;50.700;5.440;2023-05-25T09:13:54;101105.41;;;23.92;31.16
72024;BME280;59889;50.700;5.440;2023-05-25T09:16:21;101109.88;;;24.31;30.91
72024;BME280;59889;50.700;5.440;2023-05-25T09:18:44;101107.54;;;24.41;30.77
72024;BME280;59889;50.700;5.440;2023-05-25T09:21:09;101106.66;;;24.18;30.82
72024;BME280;59889;50.700;5.440;2023-05-25T09:23:36;101107.24;;;24.18;30.85
72024;BME280;59889;50.700;5.440;2023-05-25T09:26:00;101101.53;;;24.23;30.66
72024;BME280;59889;50.700;5.440;2023-05-25T09:28:25;101108.35;;;24.39;30.78
72024;BME280;59889;50.700;5.440;2023-05-25T09:30:50;101099.14;;;24.42;30.72
72024;BME280;59889;50.700;5.440;2023-05-25T09:33:15;101103.93;;;24.15;30.60
72024;BME280;59889;50.700;5.440;2023-05-25T09:35:40;101100.27;;;24.39;30.32
72024;BME280;59889;50.700;5.440;2023-05-25T09:38:06;101103.74;;;24.23;30.47
72024;BME280;59889;50.700;5.440;2023-05-25T09:40:32;101104.68;;;24.19;30.78
72024;BME280;59889;50.700;5.440;2023-05-25T09:42:57;101103.54;;;24.02;30.77
72024;BME280;59889;50.700;5.440;2023-05-25T09:45:22;101110.31;;;23.90;30.77
72024;BME280;59889;50.700;5.440;2023-05-25T09:47:46;101106.04;;;24.60;30.61
72024;BME280;59889;50.700;5.440;2023-05-25T09:50:11;101108.77;;;24.17;30.77
72024;BME280;59889;50.700;5.440;2023-05-25T09:52:36;101105.12;;;24.08;30.63
72024;BME280;59889;50.700;5.440;2023-05-25T09:55:01;101102.82;;;24.06;30.45
72024;BME280;59889;50.700;5.440;2023-05-25T09:57:26;101109.81;;;24.28;30.62
72024;BME280;59889;50.700;5.440;2023-05-25T09:59:51;101113.12;;;24.11;30.51
72024;BME280;59889;50.700;5.440;2023-05-25T10:02:16;101111.82;;;24.04;30.31
72024;BME280;59889;50.700;5.440;2023-05-25T10:04:41;101113.44;;;24.12;30.45
72024;BME280;59889;50.700;5.440;2023-05-25T10:07:07;101107.92;;;24.05;30.54
72024;BME280;59889;50.700;5.440;2023-05-25T10:09:39;101102.01;;;24.27;30.57
72024;BME280;59889;50.700;5.440;2023-05-25T10:11:57;101105.60;;;24.07;30.19
72024;BME280;59889;50.700;5.440;2023-05-25T10:14:25;101108.12;;;24.00;30.30
72024;BME280;59889;50.700;5.440;2023-05-25T10:16:52;101107.08;;;24.26;30.35
72024;BME280;59889;50.700;5.440;2023-05-25T10:19:16;101108.23;;;23.62;30.36
72024;BME280;59889;50.700;5.440;2023-05-25T10:21:38;101107.43;;;23.92;30.61
72024;BME280;59889;50.700;5.440;2023-05-25T10:24:05;101104.05;;;24.01;30.55
72024;BME280;59889;50.700;5.440;2023-05-25T10:26:32;101107.09;;;23.95;30.48
72024;BME280;59889;50.700;5.440;2023-05-25T10:28:55;101109.42;;;24.02;30.46
72024;BME280;59889;50.700;5.440;2023-05-25T10:31:19;101110.56;;;24.05;30.43
72024;BME280;59889;50.700;5.440;2023-05-25T10:33:45;101108.09;;;24.04;30.50
72024;BME280;59889;50.700;5.440;2023-05-25T10:36:10;101110.94;;;24.08;30.39
72024;BME280;59889;50.700;5.440;2023-05-25T10:38:36;101111.22;;;24.06;30.44
72024;BME280;59889;50.700;5.440;2023-05-25T10:41:03;101117.35;;;24.15;30.37
72024;BME280;59889;50.700;5.440;2023-05-25T10:43:26;101113.42;;;24.11;30.31
72024;BME280;59889;50.700;5.440;2023-05-25T10:45:51;101107.70;;;24.11;30.32
72024;BME280;59889;50.700;5.440;2023-05-25T10:48:16;101101.12;;;23.88;30.55
72024;BME280;59889;50.700;5.440;2023-05-25T10:50:48;101104.10;;;23.97;30.35
72024;BME280;59889;50.700;5.440;2023-05-25T10:53:11;101107.75;;;24.33;30.26
72024;BME280;59889;50.700;5.440;2023-05-25T10:55:42;101108.85;;;24.24;30.26
72024;BME280;59889;50.700;5.440;2023-05-25T10:58:07;101112.23;;;24.32;30.14
72024;BME280;59889;50.700;5.440;2023-05-25T11:00:23;101109.04;;;24.19;30.25
72024;BME280;59889;50.700;5.440;2023-05-25T11:02:50;101109.51;;;23.94;30.24
72024;BME280;59889;50.700;5.440;2023-05-25T11:05:30;101105.97;;;23.93;29.91
72024;BME280;59889;50.700;5.440;2023-05-25T11:10:06;101108.68;;;23.88;30.22
72024;BME280;59889;50.700;5.440;2023-05-25T11:12:31;101109.00;;;24.07;29.93
72024;BME280;59889;50.700;5.440;2023-05-25T11:15:08;101106.94;;;24.03;30.10
72024;BME280;59889;50.700;5.440;2023-05-25T11:17:22;101111.01;;;23.84;30.27
72024;BME280;59889;50.700;5.440;2023-05-25T11:19:48;101107.23;;;24.23;30.10
72024;BME280;59889;50.700;5.440;2023-05-25T11:22:13;101106.01;;;23.97;30.12
72024;BME280;59889;50.700;5.440;2023-05-25T11:24:37;101108.58;;;24.06;30.07
72024;BME280;59889;50.700;5.440;2023-05-25T11:27:03;101106.61;;;23.96;29.80
72024;BME280;59889;50.700;5.440;2023-05-25T11:29:30;101104.15;;;24.06;29.32
72024;BME280;59889;50.700;5.440;2023-05-25T11:31:54;101101.09;;;24.16;29.08
72024;BME280;59889;50.700;5.440;2023-05-25T11:34:20;101095.48;;;23.96;28.95
72024;BME280;59889;50.700;5.440;2023-05-25T11:36:43;101091.16;;;24.29;29.18
72024;BME280;59889;50.700;5.440;2023-05-25T11:39:09;101087.16;;;24.52;29.43
72024;BME280;59889;50.700;5.440;2023-05-25T11:41:35;101086.84;;;24.06;29.24
72024;BME280;59889;50.700;5.440;2023-05-25T11:44:02;101081.62;;;23.99;29.18
72024;BME280;59889;50.700;5.440;2023-05-25T11:46:24;101081.92;;;23.96;29.16
72024;BME280;59889;50.700;5.440;2023-05-25T11:48:51;101081.64;;;24.38;28.86
72024;BME280;59889;50.700;5.440;2023-05-25T11:51:15;101081.15;;;24.06;28.72
72024;BME280;59889;50.700;5.440;2023-05-25T11:53:42;101071.15;;;24.34;28.94
72024;BME280;59889;50.700;5.440;2023-05-25T11:56:06;101079.62;;;24.08;29.46
72024;BME280;59889;50.700;5.440;2023-05-25T11:58:32;101083.08;;;24.03;29.35
72024;BME280;59889;50.700;5.440;2023-05-25T12:03:28;101079.51;;;24.19;29.64
72024;BME280;59889;50.700;5.440;2023-05-25T12:05:47;101081.11;;;24.07;29.57
72024;BME280;59889;50.700;5.440;2023-05-25T12:08:12;101081.23;;;24.17;29.56
72024;BME280;59889;50.700;5.440;2023-05-25T12:10:48;101081.41;;;24.34;29.79
72024;BME280;59889;50.700;5.440;2023-05-25T12:13:02;101083.07;;;24.26;30.06
72024;BME280;59889;50.700;5.440;2023-05-25T12:15:28;101084.45;;;24.53;30.19
72024;BME280;59889;50.700;5.440;2023-05-25T12:17:53;101076.34;;;24.65;30.07
72024;BME280;59889;50.700;5.440;2023-05-25T12:20:18;101079.07;;;24.15;30.24
72024;BME280;59889;50.700;5.440;2023-05-25T12:22:44;101085.63;;;24.14;30.37
72024;BME280;59889;50.700;5.440;2023-05-25T12:25:09;101077.03;;;24.22;30.39
72024;BME280;59889;50.700;5.440;2023-05-25T12:27:33;101082.08;;;24.20;30.50
72024;BME280;59889;50.700;5.440;2023-05-25T12:29:58;101067.82;;;24.46;30.51
72024;BME280;59889;50.700;5.440;2023-05-25T12:32:24;101076.66;;;24.16;30.58
72024;BME280;59889;50.700;5.440;2023-05-25T12:34:49;101074.72;;;24.21;30.57
72024;BME280;59889;50.700;5.440;2023-05-25T12:37:18;101070.35;;;23.94;31.10
72024;BME280;59889;50.700;5.440;2023-05-25T12:39:39;101071.03;;;24.35;30.53
72024;BME280;59889;50.700;5.440;2023-05-25T12:42:11;101072.85;;;24.75;30.38